Time;durP1;ratioP1;P1;durP2;ratioP2;P2;SDS_P1;SDS_P2;PMS_P1;PMS_P2;Temp;Humidity;BMP_temperature;BMP_pressure;BME280_temperature;BME280_humidity;BME280_pressure;Samples;Min_cycle;Max_cycle;Signal;HPM_P1;HPM_P2
2021/08/30 00:02:20;;;;;;;3.83;2.75;;;;;;;16.47;73.38;102270.63;4935096;29;20429;-59
2021/08/30 00:04:49;;;;;;;4.63;2.78;;;;;;;16.45;73.41;102251.41;4935985;29;20072;-57
2021/08/30 00:07:16;;;;;;;5.30;2.42;;;;;;;16.47;73.62;102269.84;4935727;29;20097;-54
2021/08/30 00:09:44;;;;;;;6.28;2.83;;;;;;;16.50;73.86;102271.91;4939112;29;20437;-58
2021/08/30 00:12:11;;;;;;;6.97;3.25;;;;;;;16.48;73.94;102261.09;4932157;29;20071;-58
2021/08/30 00:14:38;;;;;;;5.40;2.90;;;;;;;16.49;74.35;102256.31;4932819;29;20043;-59
2021/08/30 00:17:06;;;;;;;6.70;3.10;;;;;;;16.50;74.51;102264.34;4933492;29;20127;-64
2021/08/30 00:19:34;;;;;;;5.65;3.20;;;;;;;16.51;74.68;102265.16;4916845;29;20497;-59
2021/08/30 00:22:02;;;;;;;5.57;3.53;;;;;;;16.50;74.76;102263.50;4931982;29;20722;-60
2021/08/30 00:24:31;;;;;;;7.03;3.67;;;;;;;16.49;75.16;102268.31;4931481;29;20047;-61
2021/08/30 00:26:58;;;;;;;6.97;3.22;;;;;;;16.45;75.33;102272.97;4934269;29;20043;-62
2021/08/30 00:29:25;;;;;;;4.22;2.90;;;;;;;16.42;75.25;102268.88;4914163;29;20048;-59
2021/08/30 00:31:56;;;;;;;4.75;3.05;;;;;;;16.37;75.52;102268.28;4931408;29;20047;-61
2021/08/30 00:34:24;;;;;;;7.45;3.38;;;;;;;16.37;75.53;102266.31;4933891;29;20051;-59
2021/08/30 00:36:54;;;;;;;5.57;3.63;;;;;;;16.36;75.69;102270.25;4933930;29;20194;-61
2021/08/30 00:39:22;;;;;;;7.05;3.35;;;;;;;16.34;75.95;102266.19;4933906;29;20094;-61
2021/08/30 00:41:54;;;;;;;6.68;3.40;;;;;;;16.30;75.74;102254.91;4932537;29;20047;-62
2021/08/30 00:44:22;;;;;;;7.70;3.55;;;;;;;16.30;76.15;102263.28;4930560;29;20055;-62
2021/08/30 00:46:51;;;;;;;6.22;3.42;;;;;;;16.31;75.92;102256.50;4932610;29;20050;-58
2021/08/30 00:49:18;;;;;;;4.82;3.13;;;;;;;16.34;76.10;102266.19;4931466;29;20051;-63
2021/08/30 00:51:46;;;;;;;10.18;3.20;;;;;;;16.36;76.01;102264.66;4931156;29;20493;-61
2021/08/30 00:54:14;;;;;;;9.80;3.65;;;;;;;16.31;76.28;102266.88;4934410;29;20732;-57
2021/08/30 00:56:41;;;;;;;6.97;3.60;;;;;;;16.27;76.27;102266.78;4933363;29;20386;-59
2021/08/30 00:59:09;;;;;;;7.95;3.45;;;;;;;16.24;76.31;102264.66;4933169;28;20485;-59
2021/08/30 01:01:37;;;;;;;8.52;3.65;;;;;;;16.26;76.32;102265.13;4933237;29;20055;-62
2021/08/30 01:04:09;;;;;;;10.63;4.30;;;;;;;16.25;76.69;102265.50;4932020;29;20051;-58
2021/08/30 01:06:39;;;;;;;;;;;;;;;16.25;77.00;102260.72;4932861;29;20081;-61
2021/08/30 01:09:23;;;;;;;7.03;3.25;;;;;;;16.27;76.35;102272.34;4932629;29;19922;-55
2021/08/30 01:12:21;;;;;;;4.82;2.72;;;;;;;16.27;76.70;102271.53;4935231;29;20131;-57
2021/08/30 01:15:06;;;;;;;6.68;3.25;;;;;;;16.25;76.82;102263.50;4937686;29;20078;-59
2021/08/30 01:17:38;;;;;;;7.68;2.70;;;;;;;16.25;76.53;102265.50;4935208;28;20074;-60
2021/08/30 01:20:11;;;;;;;7.55;3.28;;;;;;;16.26;76.69;102262.34;4935043;28;20513;-61
2021/08/30 01:22:45;;;;;;;6.50;3.13;;;;;;;16.27;76.92;102260.34;4934328;29;20043;-57
2021/08/30 01:25:17;;;;;;;7.05;3.00;;;;;;;16.28;76.74;102262.78;4919189;29;20047;-59
2021/08/30 01:27:44;;;;;;;;;;;;;;;16.26;77.14;102265.13;4935590;29;20058;-61
2021/08/30 01:30:17;;;;;;;9.52;4.00;;;;;;;16.31;76.59;102264.06;4935460;29;20795;-58
2021/08/30 01:32:52;;;;;;;8.40;3.38;;;;;;;16.29;76.68;102263.63;4936183;29;20062;-61
2021/08/30 01:35:27;;;;;;;6.38;3.47;;;;;;;16.31;76.97;102266.88;4935326;29;20070;-61
2021/08/30 01:37:57;;;;;;;5.43;3.95;;;;;;;16.32;76.75;102269.34;4934712;29;20055;-59
2021/08/30 01:40:28;;;;;;;10.32;3.67;;;;;;;16.34;76.91;102266.19;4937329;28;20043;-59
2021/08/30 01:42:57;;;;;;;8.02;3.65;;;;;;;16.32;77.01;102274.94;4936211;29;20051;-56
2021/08/30 01:45:27;;;;;;;10.85;3.95;;;;;;;16.33;77.22;102270.16;4933096;28;20055;-58
2021/08/30 01:48:00;;;;;;;11.30;3.47;;;;;;;16.30;77.42;102277.25;4934468;29;20047;-57
2021/08/30 01:50:29;;;;;;;13.20;3.58;;;;;;;16.31;77.24;102278.88;4936578;29;20041;-59
2021/08/30 01:52:59;;;;;;;6.30;3.35;;;;;;;16.31;77.28;102272.47;4920078;29;20051;-59
2021/08/30 02:00:44;;;;;;;6.75;3.28;;;;;;;16.29;77.71;102281.22;4936455;28;20039;-62
2021/08/30 02:03:21;;;;;;;5.88;3.10;;;;;;;16.30;78.11;102271.66;4937263;29;20154;-56
2021/08/30 02:05:54;;;;;;;;;;;;;;;16.30;78.07;102277.25;4934126;29;20090;-63
2021/08/30 02:08:23;;;;;;;6.32;3.10;;;;;;;16.31;77.36;102273.28;4935794;29;19930;-59
2021/08/30 02:10:52;;;;;;;6.88;3.33;;;;;;;16.30;77.59;102271.66;4934768;28;20060;-60
2021/08/30 02:13:25;;;;;;;10.43;3.38;;;;;;;16.28;77.85;102268.38;4938602;29;20039;-60
2021/08/30 02:15:53;;;;;;;6.63;3.50;;;;;;;16.32;77.85;102268.53;4939600;29;20043;-56
2021/08/30 02:18:44;;;;;;;5.38;3.28;;;;;;;16.33;78.03;102270.97;4937629;29;20063;-60
2021/08/30 02:21:29;;;;;;;7.43;2.97;;;;;;;16.38;77.75;102267.97;4937919;29;20043;-59
2021/08/30 02:24:02;;;;;;;7.78;3.83;;;;;;;16.41;77.87;102269.25;4938043;29;20138;-61
2021/08/30 02:26:56;;;;;;;12.20;5.88;;;;;;;16.42;77.98;102277.25;4937286;29;20054;-62
2021/08/30 02:29:38;;;;;;;6.95;2.97;;;;;;;16.37;78.03;102271.91;4937453;29;20392;-59
2021/08/30 02:32:07;;;;;;;4.90;2.47;;;;;;;16.40;77.67;102265.63;4938137;29;20129;-59
2021/08/30 02:34:37;;;;;;;5.15;2.35;;;;;;;16.44;77.78;102271.34;4938868;28;20484;-60
2021/08/30 02:37:05;;;;;;;4.90;2.40;;;;;;;16.44;77.79;102260.94;4937727;28;20135;-64
2021/08/30 02:39:34;;;;;;;7.57;2.92;;;;;;;16.46;77.82;102266.22;4935250;28;20041;-57
2021/08/30 02:42:02;;;;;;;5.07;2.63;;;;;;;16.48;77.66;102254.66;4938113;29;20270;-56
2021/08/30 02:44:29;;;;;;;4.55;2.13;;;;;;;16.47;77.76;102259.44;4935962;28;20039;-57
2021/08/30 02:46:57;;;;;;;8.13;2.35;;;;;;;16.40;77.82;102260.03;4937634;28;20047;-59
2021/08/30 02:49:25;;;;;;;7.45;2.13;;;;;;;16.36;77.77;102261.88;4938593;29;20063;-59
2021/08/30 02:51:53;;;;;;;10.70;2.55;;;;;;;16.33;77.82;102265.41;4936706;29;20058;-59
2021/08/30 02:54:22;;;;;;;8.43;2.70;;;;;;;16.33;77.72;102265.41;4917519;29;20054;-57
2021/08/30 02:56:49;;;;;;;7.07;2.17;;;;;;;16.33;77.75;102270.16;4935678;28;20051;-58
2021/08/30 02:59:17;;;;;;;3.80;2.03;;;;;;;16.30;77.82;102266.09;4938627;29;20500;-58
2021/08/30 03:01:44;;;;;;;9.90;3.33;;;;;;;16.31;77.81;102266.88;4938201;29;20118;-59
2021/08/30 03:04:12;;;;;;;7.00;2.65;;;;;;;16.28;78.01;102267.59;4937168;29;20039;-58
2021/08/30 03:06:41;;;;;;;3.05;1.83;;;;;;;16.23;78.22;102262.22;4939135;29;20405;-57
2021/08/30 03:09:08;;;;;;;3.95;1.70;;;;;;;16.16;78.34;102270.34;4937080;29;20095;-56
2021/08/30 03:11:38;;;;;;;4.60;1.58;;;;;;;16.09;78.34;102265.34;4935563;29;20055;-54
2021/08/30 03:14:08;;;;;;;3.47;1.58;;;;;;;16.11;77.97;102263.00;4936640;29;20047;-58
2021/08/30 03:16:36;;;;;;;3.13;2.17;;;;;;;16.14;77.79;102259.53;4936113;28;20047;-55
2021/08/30 03:19:04;;;;;;;3.33;1.70;;;;;;;16.14;77.76;102262.31;4934671;28;20370;-61
2021/08/30 03:21:32;;;;;;;2.17;1.98;;;;;;;16.15;77.72;102269.53;4935968;28;20035;-61
2021/08/30 03:24:01;;;;;;;5.20;1.58;;;;;;;16.16;77.70;102259.16;4936298;29;20047;-57
2021/08/30 03:26:34;;;;;;;5.78;2.10;;;;;;;16.17;77.74;102258.03;4936395;29;20484;-58
2021/08/30 03:29:04;;;;;;;2.22;2.00;;;;;;;16.10;78.15;102255.78;4935703;29;20045;-58
2021/08/30 03:31:34;;;;;;;10.00;2.53;;;;;;;16.07;78.28;102262.06;4936230;28;20062;-56
2021/08/30 03:34:03;;;;;;;3.92;1.50;;;;;;;16.05;78.50;102258.78;4938317;28;20047;-58
2021/08/30 03:36:30;;;;;;;4.13;1.77;;;;;;;16.00;78.64;102256.22;4936693;28;20047;-55
2021/08/30 03:38:58;;;;;;;6.15;2.35;;;;;;;15.98;78.86;102269.72;4937670;29;20078;-59
2021/08/30 03:41:26;;;;;;;2.78;1.73;;;;;;;15.97;78.87;102262.50;4936556;29;20039;-58
2021/08/30 03:43:55;;;;;;;5.35;2.20;;;;;;;15.92;79.21;102271.09;4935914;29;20412;-61
2021/08/30 03:46:23;;;;;;;3.10;2.08;;;;;;;15.93;78.96;102267.16;4938055;29;20050;-56
2021/08/30 03:48:50;;;;;;;5.90;3.42;;;;;;;15.92;78.99;102271.09;4935389;29;20047;-55
2021/08/30 03:51:17;;;;;;;4.57;2.40;;;;;;;15.91;79.26;102269.50;4937331;29;20044;-59
2021/08/30 03:53:46;;;;;;;5.40;2.67;;;;;;;15.90;79.37;102265.06;4936504;28;20472;-59
2021/08/30 03:56:13;;;;;;;4.75;2.58;;;;;;;15.88;79.44;102263.75;4936705;29;20044;-59
2021/08/30 03:58:43;;;;;;;8.13;1.90;;;;;;;15.85;79.51;102259.69;4935906;29;20043;-58
2021/08/30 04:01:14;;;;;;;5.57;2.53;;;;;;;15.87;79.37;102257.34;4935770;29;20449;-56
2021/08/30 04:03:46;;;;;;;4.93;2.53;;;;;;;15.86;79.30;102255.72;4938534;29;20051;-61
2021/08/30 04:06:14;;;;;;;;;;;;;;;15.83;79.58;102253.63;4936834;29;20503;-54
2021/08/30 04:08:41;;;;;;;7.40;2.58;;;;;;;15.84;79.25;102249.66;4936884;28;19926;-54
2021/08/30 04:11:10;;;;;;;6.40;1.88;;;;;;;15.82;79.27;102257.56;4937835;29;20066;-55
2021/08/30 04:13:39;;;;;;;4.55;2.20;;;;;;;15.81;79.31;102253.13;4937038;29;20142;-57
2021/08/30 04:16:07;;;;;;;4.38;1.98;;;;;;;15.80;79.41;102254.31;4936371;29;20047;-58
2021/08/30 04:18:35;;;;;;;10.45;3.28;;;;;;;15.81;79.32;102253.13;4926475;29;20404;-56
2021/08/30 04:21:02;;;;;;;6.75;1.80;;;;;;;15.82;79.29;102250.03;4936181;28;20058;-57
2021/08/30 04:23:30;;;;;;;7.10;2.13;;;;;;;15.83;79.33;102254.44;4936158;29;20485;-54
2021/08/30 04:25:57;;;;;;;4.70;2.25;;;;;;;15.84;79.48;102255.25;4934473;29;20039;-58
2021/08/30 04:28:24;;;;;;;8.70;1.83;;;;;;;15.83;79.38;102256.44;4935411;29;20042;-55
2021/08/30 04:30:53;;;;;;;9.25;2.17;;;;;;;15.80;79.42;102257.09;4936379;29;20059;-59
2021/08/30 04:33:22;;;;;;;12.77;2.60;;;;;;;15.78;79.46;102259.41;4936739;28;20047;-60
2021/08/30 04:35:49;;;;;;;5.18;2.47;;;;;;;15.75;79.32;102260.13;4934781;28;20055;-58
2021/08/30 04:38:16;;;;;;;4.25;2.08;;;;;;;15.73;79.43;102260.44;4935175;29;20147;-61
2021/08/30 04:40:43;;;;;;;6.43;2.03;;;;;;;15.73;79.15;102257.66;4933350;29;21436;-52
2021/08/30 04:43:12;;;;;;;7.15;1.98;;;;;;;15.70;79.00;102261.13;4935220;29;20050;-60
2021/08/30 04:45:39;;;;;;;5.65;2.90;;;;;;;15.72;78.91;102271.97;4934725;29;20047;-55
2021/08/30 04:48:06;;;;;;;11.30;2.88;;;;;;;15.73;78.84;102256.84;4935895;29;20035;-57
2021/08/30 04:50:33;;;;;;;6.65;2.03;;;;;;;15.73;78.65;102262.41;4935483;28;20047;-55
2021/08/30 04:53:00;;;;;;;8.70;2.15;;;;;;;15.74;78.80;102256.50;4934517;29;20397;-54
2021/08/30 04:55:27;;;;;;;7.97;2.22;;;;;;;15.74;78.67;102258.47;4933786;28;20066;-61
2021/08/30 04:57:54;;;;;;;4.78;1.75;;;;;;;15.72;78.60;102260.81;4935481;29;20050;-61
2021/08/30 05:00:21;;;;;;;6.78;2.10;;;;;;;15.68;78.70;102265.44;4936912;29;20058;-57
2021/08/30 05:02:48;;;;;;;6.25;1.98;;;;;;;15.68;78.35;102259.84;4935095;28;20070;-59
2021/08/30 05:05:16;;;;;;;7.55;2.20;;;;;;;15.70;78.27;102263.13;4935927;28;20445;-56
2021/08/30 05:07:45;;;;;;;3.42;1.88;;;;;;;15.67;77.88;102263.81;4934935;29;20386;-54
2021/08/30 05:10:13;;;;;;;7.85;2.42;;;;;;;15.65;77.85;102261.34;4915187;29;20070;-55
2021/08/30 05:12:42;;;;;;;5.65;2.00;;;;;;;15.65;77.59;102268.91;4933130;29;20053;-57
2021/08/30 05:15:09;;;;;;;5.15;2.13;;;;;;;15.66;77.60;102278.91;4931536;29;20039;-53
2021/08/30 05:17:35;;;;;;;5.68;2.05;;;;;;;15.65;77.31;102275.31;4931981;29;20044;-58
2021/08/30 05:20:04;;;;;;;6.43;3.28;;;;;;;15.63;77.21;102286.00;4931596;29;20047;-55
2021/08/30 05:22:31;;;;;;;3.88;1.70;;;;;;;15.66;76.84;102279.75;4932042;29;20053;-57
2021/08/30 05:24:58;;;;;;;8.02;2.80;;;;;;;15.65;76.88;102274.47;4932784;29;20053;-60
2021/08/30 05:27:25;;;;;;;6.90;2.40;;;;;;;15.63;76.95;102286.00;4933738;29;21093;-57
2021/08/30 05:29:57;;;;;;;;;;;;;;;15.58;77.05;102277.84;4933673;29;20135;-60
2021/08/30 05:32:24;;;;;;;5.57;1.83;;;;;;;15.60;76.96;102285.88;4931901;29;20354;-55
2021/08/30 05:34:51;;;;;;;5.40;2.15;;;;;;;15.62;76.91;102284.38;4933363;29;20051;-60
2021/08/30 05:37:19;;;;;;;5.50;2.10;;;;;;;15.65;76.94;102288.44;4933666;29;20128;-58
2021/08/30 05:39:45;;;;;;;6.00;1.90;;;;;;;15.62;76.64;102284.38;4932234;29;20523;-58
2021/08/30 05:42:13;;;;;;;4.50;1.90;;;;;;;15.64;76.70;102293.22;4933412;29;20044;-56
2021/08/30 05:44:40;;;;;;;16.77;2.88;;;;;;;15.67;76.54;102288.94;4932000;29;20051;-57
2021/08/30 05:47:07;;;;;;;7.80;2.35;;;;;;;15.65;76.22;102288.44;4916816;29;20043;-54
2021/08/30 05:49:34;;;;;;;3.65;1.75;;;;;;;15.61;76.04;102277.16;4934079;29;20071;-60
2021/08/30 05:52:01;;;;;;;6.15;2.58;;;;;;;15.63;76.18;102287.97;4933980;29;20061;-56
2021/08/30 05:54:30;;;;;;;5.32;2.53;;;;;;;15.66;76.08;102285.31;4934161;29;20048;-57
2021/08/30 05:56:58;;;;;;;4.35;1.95;;;;;;;15.66;76.03;102290.91;4935148;29;20031;-59
2021/08/30 05:59:26;;;;;;;10.32;3.05;;;;;;;15.66;75.99;102298.47;4935417;29;20039;-56
2021/08/30 06:01:52;;;;;;;7.50;2.03;;;;;;;15.67;76.01;102288.94;4933874;29;20190;-60
2021/08/30 06:04:21;;;;;;;7.22;2.00;;;;;;;15.67;75.84;102300.09;4933404;29;20075;-59
2021/08/30 06:06:48;;;;;;;6.90;1.90;;;;;;;15.68;75.69;102293.34;4936930;29;20049;-56
2021/08/30 06:09:16;;;;;;;5.90;3.10;;;;;;;15.65;75.88;102306.00;4937551;29;20039;-56
2021/08/30 06:11:42;;;;;;;6.28;2.00;;;;;;;15.64;76.08;102306.38;4938924;28;20054;-59
2021/08/30 06:14:09;;;;;;;6.05;2.00;;;;;;;15.62;76.01;102311.50;4939418;28;20126;-61
2021/08/30 06:16:36;;;;;;;4.13;1.92;;;;;;;15.64;75.99;102309.16;4937811;29;20074;-60
2021/08/30 06:19:04;;;;;;;7.63;1.90;;;;;;;15.60;76.03;102303.44;4938222;29;20062;-55
2021/08/30 06:21:31;;;;;;;9.23;1.70;;;;;;;15.58;75.99;102300.19;4939935;29;20050;-58
2021/08/30 06:23:58;;;;;;;4.80;1.83;;;;;;;15.58;76.24;102304.94;4939200;29;20078;-60
2021/08/30 06:26:24;;;;;;;4.38;1.80;;;;;;;15.60;76.14;102302.63;4935908;29;20511;-57
2021/08/30 06:28:51;;;;;;;16.38;2.40;;;;;;;15.58;76.06;102302.16;4938121;28;20050;-57
2021/08/30 06:31:18;;;;;;;4.07;1.55;;;;;;;15.56;76.00;102307.25;4936094;29;20047;-59
2021/08/30 06:33:45;;;;;;;4.10;1.27;;;;;;;15.54;76.02;102309.59;4937121;28;20051;-58
2021/08/30 06:36:11;;;;;;;5.45;1.60;;;;;;;15.57;75.67;102306.91;4934518;29;20051;-57
2021/08/30 06:38:40;;;;;;;8.20;1.92;;;;;;;15.61;75.61;102312.63;4929304;28;20046;-62
2021/08/30 06:41:06;;;;;;;5.60;1.80;;;;;;;15.66;75.61;102318.00;4933640;29;20098;-57
2021/08/30 06:43:33;;;;;;;6.88;1.77;;;;;;;15.69;75.40;102311.75;4933505;28;20062;-63
2021/08/30 06:46:00;;;;;;;3.20;1.70;;;;;;;15.69;75.21;102312.56;4930479;29;20097;-61
2021/08/30 06:48:27;;;;;;;4.28;1.77;;;;;;;15.69;74.97;102312.56;4930218;28;20058;-62
2021/08/30 06:50:54;;;;;;;5.57;2.40;;;;;;;15.72;74.89;102317.47;4917944;28;20138;-59
2021/08/30 06:53:20;;;;;;;3.70;1.77;;;;;;;15.76;74.85;102315.63;4933198;28;20042;-59
2021/08/30 06:55:47;;;;;;;4.63;1.63;;;;;;;15.77;74.70;102320.06;4935561;28;20084;-56
2021/08/30 06:58:14;;;;;;;5.53;1.48;;;;;;;15.79;74.55;102325.28;4933006;28;20051;-62
2021/08/30 07:00:41;;;;;;;6.47;1.60;;;;;;;15.78;74.48;102330.03;4931164;28;20055;-59
2021/08/30 07:03:08;;;;;;;2.22;1.00;;;;;;;15.80;74.00;102324.13;4916309;28;20059;-61
2021/08/30 07:05:35;;;;;;;4.93;1.30;;;;;;;15.80;73.86;102324.13;4933840;29;20404;-59
2021/08/30 07:08:04;;;;;;;3.03;1.08;;;;;;;15.79;73.62;102328.06;4933562;28;20069;-58
2021/08/30 07:10:31;;;;;;;2.47;1.67;;;;;;;15.79;73.52;102328.91;4933510;29;20055;-59
2021/08/30 07:12:58;;;;;;;2.88;1.00;;;;;;;15.77;73.19;102322.03;4934319;29;20047;-61
2021/08/30 07:15:25;;;;;;;0.85;0.77;;;;;;;15.74;72.75;102331.91;4933343;29;20118;-59
2021/08/30 07:17:51;;;;;;;2.20;0.90;;;;;;;15.75;72.32;102327.13;4931529;29;20051;-55
2021/08/30 07:20:18;;;;;;;1.58;0.88;;;;;;;15.79;72.30;102336.44;4933092;28;20058;-59
2021/08/30 07:22:45;;;;;;;2.22;1.20;;;;;;;15.79;71.98;102322.50;4933302;28;20098;-60
2021/08/30 07:25:12;;;;;;;3.45;1.17;;;;;;;15.76;71.90;102332.38;4915523;29;20816;-60
2021/08/30 07:27:39;;;;;;;1.63;1.10;;;;;;;15.78;71.94;102330.03;4935257;29;20050;-60
2021/08/30 07:30:06;;;;;;;4.18;1.17;;;;;;;15.76;71.71;102329.56;4932937;28;20623;-60
2021/08/30 07:32:33;;;;;;;1.80;1.02;;;;;;;15.77;71.84;102339.59;4934397;29;20154;-62
2021/08/30 07:35:00;;;;;;;2.65;1.10;;;;;;;15.80;71.89;102344.50;4933307;29;20047;-59
2021/08/30 07:37:27;;;;;;;2.60;1.17;;;;;;;15.80;72.26;102346.47;4934899;29;20053;-55
2021/08/30 07:39:54;;;;;;;5.25;1.52;;;;;;;15.82;72.74;102344.16;4933807;29;20040;-58
2021/08/30 07:42:20;;;;;;;2.97;1.50;;;;;;;15.81;73.09;102346.13;4935542;29;20043;-57
2021/08/30 07:44:47;;;;;;;5.28;2.13;;;;;;;15.79;73.39;102353.22;4909257;29;20055;-59
2021/08/30 07:47:14;;;;;;;6.30;2.50;;;;;;;15.76;73.93;102353.88;4933764;29;20050;-58
2021/08/30 07:49:41;;;;;;;4.57;2.40;;;;;;;15.79;73.96;102356.81;4934189;28;20050;-56
2021/08/30 07:52:08;;;;;;;6.00;2.03;;;;;;;15.81;74.30;102354.50;4933268;29;20175;-58
2021/08/30 07:54:34;;;;;;;3.70;1.42;;;;;;;15.85;74.38;102354.66;4916520;29;20052;-58
2021/08/30 07:57:01;;;;;;;7.72;3.05;;;;;;;15.79;74.60;102347.63;4934312;29;20058;-59
2021/08/30 07:59:28;;;;;;;4.22;1.48;;;;;;;15.80;74.78;102358.47;4933532;29;20070;-58
2021/08/30 08:01:55;;;;;;;3.60;1.88;;;;;;;15.82;74.90;102366.50;4934726;28;20386;-58
2021/08/30 08:04:22;;;;;;;7.47;1.55;;;;;;;15.80;74.91;102372.44;4933672;29;20039;-58
2021/08/30 08:06:49;;;;;;;4.30;1.98;;;;;;;15.81;74.85;102364.84;4923195;28;20162;-58
2021/08/30 08:09:16;;;;;;;6.30;1.80;;;;;;;15.82;74.52;102366.50;4933943;28;20142;-57
2021/08/30 08:11:44;;;;;;;6.22;1.42;;;;;;;15.81;74.30;102368.47;4934171;29;20055;-57
2021/08/30 08:14:11;;;;;;;3.75;1.40;;;;;;;15.81;74.30;102365.66;4933066;29;20074;-56
2021/08/30 08:16:38;;;;;;;2.58;1.60;;;;;;;15.86;74.26;102370.22;4933888;28;20043;-60
2021/08/30 08:19:06;;;;;;;7.50;2.10;;;;;;;15.89;74.20;102368.72;4933611;29;20075;-58
2021/08/30 08:21:35;;;;;;;5.90;2.53;;;;;;;15.93;73.94;102376.09;4932984;29;20130;-61
2021/08/30 08:24:03;;;;;;;7.55;1.58;;;;;;;15.94;73.59;102377.72;4934045;29;20054;-60
2021/08/30 08:26:30;;;;;;;5.85;1.15;;;;;;;15.99;73.47;102371.13;4933017;29;20055;-58
2021/08/30 08:28:57;;;;;;;2.92;1.77;;;;;;;16.01;73.32;102371.59;4931348;28;20032;-58
2021/08/30 08:31:24;;;;;;;5.25;2.33;;;;;;;15.97;72.69;102379.00;4933350;28;20055;-59
2021/08/30 08:33:50;;;;;;;4.18;1.50;;;;;;;15.98;72.53;102373.09;4934165;28;20130;-58
2021/08/30 08:36:17;;;;;;;3.10;1.38;;;;;;;15.99;72.11;102374.72;4932825;29;20042;-58
2021/08/30 08:38:44;;;;;;;2.75;1.35;;;;;;;15.96;71.94;102381.00;4934600;29;20066;-59
2021/08/30 08:41:11;;;;;;;6.10;1.40;;;;;;;15.97;71.62;102384.59;4931122;29;20047;-61
2021/08/30 08:43:38;;;;;;;3.85;1.45;;;;;;;15.95;71.27;102376.56;4932228;28;20063;-62
2021/08/30 08:46:05;;;;;;;3.45;1.45;;;;;;;15.99;71.20;102383.09;4934371;29;20045;-61
2021/08/30 08:48:34;;;;;;;1.50;1.17;;;;;;;16.02;70.88;102379.63;4933803;29;20075;-58
2021/08/30 08:51:01;;;;;;;4.50;1.40;;;;;;;16.07;70.25;102389.78;4932956;29;20051;-56
2021/08/30 08:53:28;;;;;;;2.65;1.40;;;;;;;16.07;70.26;102393.38;4933998;29;20145;-61
2021/08/30 08:55:55;;;;;;;2.85;1.15;;;;;;;16.08;69.98;102392.22;4933908;29;22662;-58
2021/08/30 08:58:22;;;;;;;2.63;1.40;;;;;;;16.07;69.74;102389.78;4930917;29;20039;-56
2021/08/30 09:01:04;;;;;;;2.80;1.20;;;;;;;16.05;69.20;102392.91;4932881;29;20057;-57
2021/08/30 09:03:32;;;;;;;5.20;1.42;;;;;;;16.05;69.36;102395.69;4950444;28;20058;-61
2021/08/30 09:06:04;;;;;;;2.25;1.00;;;;;;;16.02;69.11;102388.00;4950846;28;20050;-54
2021/08/30 09:08:40;;;;;;;2.42;1.17;;;;;;;16.03;69.00;102389.63;4952329;28;20078;-60
2021/08/30 09:11:56;;;;;;;2.65;0.93;;;;;;;16.00;66.77;102400.66;4949998;28;20051;-62
2021/08/30 09:14:25;;;;;;;2.55;1.17;;;;;;;16.01;68.33;102405.94;4950064;28;20556;-58
2021/08/30 09:17:08;;;;;;;2.38;0.85;;;;;;;16.03;68.11;102412.00;4946059;28;20046;-59
2021/08/30 09:19:35;;;;;;;2.78;1.10;;;;;;;16.06;68.60;102407.69;4950549;28;20043;-59
2021/08/30 09:22:03;;;;;;;2.88;1.35;;;;;;;16.10;68.95;102408.63;4949022;28;20114;-58
2021/08/30 09:24:31;;;;;;;1.63;0.93;;;;;;;16.18;69.25;102402.97;4949656;28;20054;-59
2021/08/30 09:27:02;;;;;;;4.05;0.90;;;;;;;16.19;69.33;102407.41;4950442;28;20054;-58
2021/08/30 09:29:32;;;;;;;1.35;0.90;;;;;;;16.25;69.54;102408.84;4950942;28;20500;-58
2021/08/30 09:32:00;;;;;;;1.70;1.20;;;;;;;16.26;69.50;102407.66;4947553;28;20047;-58
2021/08/30 09:34:28;;;;;;;1.08;0.88;;;;;;;16.26;69.65;102415.22;4950506;28;20055;-62
2021/08/30 09:36:56;;;;;;;1.67;0.90;;;;;;;16.28;69.79;102405.34;4948805;28;20521;-60
2021/08/30 09:39:23;;;;;;;2.90;0.90;;;;;;;16.29;69.72;102408.94;4950753;28;20452;-59
2021/08/30 09:41:51;;;;;;;6.22;1.13;;;;;;;16.27;69.36;102412.09;4930472;28;20046;-59
2021/08/30 09:44:28;;;;;;;1.77;1.15;;;;;;;16.28;68.96;102407.34;4951076;28;20050;-57
2021/08/30 09:46:55;;;;;;;1.25;0.90;;;;;;;16.30;68.66;102411.41;4950717;28;20473;-58
2021/08/30 09:49:27;;;;;;;22.60;2.17;;;;;;;16.35;68.70;102408.41;4951073;28;20501;-56
2021/08/30 09:51:54;;;;;;;2.37;0.80;;;;;;;16.40;69.10;102410.97;4950576;28;20156;-57
2021/08/30 09:54:23;;;;;;;3.03;1.13;;;;;;;16.37;69.71;102417.25;4933648;28;20552;-61
2021/08/30 09:56:50;;;;;;;2.63;0.82;;;;;;;16.34;70.08;102417.13;4948723;28;20138;-57
2021/08/30 09:59:18;;;;;;;3.13;1.15;;;;;;;16.35;70.26;102419.59;4951156;28;22184;-56
2021/08/30 10:01:46;;;;;;;2.17;1.20;;;;;;;16.44;70.34;102416.72;4950166;28;20049;-58
2021/08/30 10:04:19;;;;;;;2.97;1.00;;;;;;;16.51;70.68;102418.94;4945386;28;20057;-58
2021/08/30 10:06:51;;;;;;;4.97;1.00;;;;;;;16.56;70.84;102421.53;4950254;28;20047;-58
2021/08/30 10:09:20;;;;;;;2.67;1.10;;;;;;;16.60;70.82;102426.09;4943594;28;20050;-62
2021/08/30 10:11:50;;;;;;;3.08;1.13;;;;;;;16.62;70.87;102429.38;4933181;29;20126;-56
2021/08/30 10:14:25;;;;;;;4.72;1.60;;;;;;;16.61;70.72;102421.31;4932705;29;20065;-57
2021/08/30 10:16:54;;;;;;;3.75;1.42;;;;;;;16.58;71.08;102428.41;4917238;29;20043;-54
2021/08/30 10:19:32;;;;;;;2.55;1.33;;;;;;;16.60;71.29;102431.69;4931223;29;20405;-55
2021/08/30 10:22:02;;;;;;;3.17;0.95;;;;;;;16.65;71.28;102430.66;4933058;29;20054;-58
2021/08/30 10:24:43;;;;;;;2.33;1.37;;;;;;;16.72;71.14;102434.53;4932884;28;20193;-55
2021/08/30 10:27:11;;;;;;;5.57;1.27;;;;;;;16.78;70.80;102435.94;4933916;29;20268;-56
2021/08/30 10:29:40;;;;;;;4.13;1.35;;;;;;;16.85;70.86;102424.16;4932577;28;20477;-56
2021/08/30 10:32:19;;;;;;;2.55;1.05;;;;;;;16.89;70.90;102430.72;4933419;29;20069;-58
2021/08/30 10:34:46;;;;;;;2.00;1.10;;;;;;;16.92;70.60;102425.22;4936643;29;20118;-53
2021/08/30 10:37:18;;;;;;;2.55;1.17;;;;;;;16.92;70.49;102421.59;4919705;28;20039;-54
2021/08/30 10:39:52;;;;;;;4.15;1.20;;;;;;;16.82;70.28;102428.47;4920714;29;20398;-60
2021/08/30 10:42:19;;;;;;;5.72;1.90;;;;;;;16.70;70.49;102425.66;4935700;29;20051;-56
2021/08/30 10:44:52;;;;;;;5.90;1.30;;;;;;;16.72;70.58;102428.09;4936400;29;20058;-61
2021/08/30 10:47:23;;;;;;;2.95;1.10;;;;;;;16.74;70.80;102432.19;4936522;29;20058;-58
2021/08/30 10:49:51;;;;;;;3.22;0.80;;;;;;;16.68;70.82;102427.97;4934476;28;20071;-56
2021/08/30 10:52:18;;;;;;;4.38;1.20;;;;;;;16.64;70.85;102431.81;4935162;28;20170;-58
2021/08/30 10:54:56;;;;;;;4.00;0.77;;;;;;;16.61;70.90;102438.91;4936513;29;20531;-57
2021/08/30 10:57:40;;;;;;;2.55;1.13;;;;;;;16.56;71.19;102430.75;4935469;29;20058;-57
2021/08/30 11:00:09;;;;;;;2.60;0.88;;;;;;;16.52;71.32;102429.75;4935169;29;20113;-58
2021/08/30 11:02:40;;;;;;;4.78;1.33;;;;;;;16.46;71.68;102436.75;4936348;28;20118;-56
2021/08/30 11:05:08;;;;;;;2.63;0.60;;;;;;;16.31;72.13;102435.41;4936112;28;20503;-55
2021/08/30 11:07:36;;;;;;;7.60;2.20;;;;;;;16.23;72.11;102438.28;4936069;29;20373;-59
2021/08/30 11:10:07;;;;;;;5.50;1.67;;;;;;;16.09;73.00;102446.97;4940868;28;20054;-57
2021/08/30 11:12:35;;;;;;;;;;;;;;;16.09;73.71;102438.56;4957525;28;20058;-60
2021/08/30 11:15:04;;;;;;;2.63;0.93;;;;;;;16.16;73.11;102444.41;4952627;28;19922;-55
2021/08/30 11:17:32;;;;;;;2.70;1.05;;;;;;;16.18;73.10;102442.09;4954174;28;20043;-56
2021/08/30 11:20:00;;;;;;;4.00;1.50;;;;;;;16.27;73.34;102440.06;4955361;28;20384;-63
2021/08/30 11:22:27;;;;;;;3.20;1.02;;;;;;;16.32;73.21;102439.84;4952369;28;20476;-55
2021/08/30 11:24:54;;;;;;;3.22;1.65;;;;;;;16.26;72.80;102449.59;4947767;28;20058;-60
2021/08/30 11:27:27;;;;;;;1.73;1.05;;;;;;;16.17;72.91;102450.84;4932494;28;20563;-56
2021/08/30 11:29:57;;;;;;;6.97;1.52;;;;;;;16.23;73.12;102455.84;4945660;28;20389;-54
2021/08/30 11:32:29;;;;;;;2.38;0.70;;;;;;;16.25;72.59;102447.97;4936097;28;20141;-58
2021/08/30 11:34:57;;;;;;;3.38;1.42;;;;;;;16.32;72.43;102453.81;4954461;28;20050;-57
2021/08/30 11:37:29;;;;;;;1.60;0.90;;;;;;;16.39;72.33;102456.84;4955662;28;20381;-58
2021/08/30 11:39:59;;;;;;;3.60;1.08;;;;;;;16.42;72.35;102458.97;4945934;28;20408;-56
2021/08/30 11:42:32;;;;;;;4.30;1.35;;;;;;;16.48;72.69;102467.16;4952207;28;20074;-57